Time;durP1;ratioP1;P1;durP2;ratioP2;P2;SDS_P1;SDS_P2;PMS_P1;PMS_P2;Temp;Humidity;BMP_temperature;BMP_pressure;BME280_temperature;BME280_humidity;BME280_pressure;Samples;Min_cycle;Max_cycle;Signal;HPM_P1;HPM_P2
2023/01/11 00:02:09;;;;;;;5.85;2.85;;;10.00;99.90;;;;;;5038136;28;20029;-84
2023/01/11 00:04:34;;;;;;;3.35;2.20;;;10.00;99.90;;;;;;5038154;28;20096;-84
2023/01/11 00:07:00;;;;;;;4.85;2.88;;;10.10;99.90;;;;;;5038000;28;20075;-84
2023/01/11 00:09:26;;;;;;;8.90;3.25;;;10.10;99.90;;;;;;5054273;28;20428;-83
2023/01/11 00:11:52;;;;;;;5.20;2.80;;;10.20;99.90;;;;;;5038034;28;20075;-83
2023/01/11 00:14:17;;;;;;;5.32;3.00;;;10.20;99.90;;;;;;5040956;28;20055;-83
2023/01/11 00:16:43;;;;;;;5.28;2.90;;;10.30;99.90;;;;;;5046714;28;20056;-85
2023/01/11 00:19:09;;;;;;;5.38;2.83;;;10.30;99.90;;;;;;5051214;28;20029;-84
2023/01/11 00:21:34;;;;;;;6.18;3.33;;;10.30;99.90;;;;;;5038269;28;20029;-83
2023/01/11 00:24:00;;;;;;;8.75;3.08;;;10.30;99.90;;;;;;5037586;28;20025;-84
2023/01/11 00:26:26;;;;;;;4.43;2.45;;;10.30;99.90;;;;;;5037575;28;20025;-84
2023/01/11 00:28:51;;;;;;;6.63;3.00;;;10.30;99.90;;;;;;5037475;28;20098;-83
2023/01/11 00:31:17;;;;;;;8.02;2.67;;;10.40;99.90;;;;;;5037306;28;20037;-83
2023/01/11 00:33:43;;;;;;;7.30;3.40;;;10.40;99.90;;;;;;5053693;28;20040;-85
2023/01/11 00:36:09;;;;;;;9.15;3.55;;;10.40;99.90;;;;;;5054734;28;20035;-84
2023/01/11 00:38:45;;;;;;;7.47;2.55;;;10.50;99.90;;;;;;5037177;28;20366;-84
2023/01/11 00:49:25;;;;;;;6.60;3.08;;;10.60;99.90;;;;;;5053064;28;20094;-83
2023/01/11 00:51:51;;;;;;;9.63;3.88;;;10.60;99.90;;;;;;5053411;28;20112;-85
2023/01/11 00:54:17;;;;;;;7.80;3.72;;;10.60;99.90;;;;;;5036551;28;20436;-83
2023/01/11 00:56:42;;;;;;;6.85;3.50;;;10.70;99.90;;;;;;5053593;28;20484;-82
2023/01/11 00:59:08;;;;;;;6.45;3.40;;;10.70;99.90;;;;;;5020577;28;20382;-84
2023/01/11 01:01:34;;;;;;;8.57;3.08;;;10.70;99.90;;;;;;5019836;28;20393;-83
2023/01/11 01:04:01;;;;;;;7.10;2.67;;;10.70;99.90;;;;;;5036983;28;20029;-83
2023/01/11 01:06:27;;;;;;;6.88;3.42;;;10.70;99.90;;;;;;5036733;28;20029;-83
2023/01/11 01:08:52;;;;;;;4.75;2.65;;;10.70;99.90;;;;;;5053351;28;20105;-83
2023/01/11 01:11:18;;;;;;;5.82;2.60;;;10.70;99.90;;;;;;5020044;28;20035;-85
2023/01/11 01:16:28;;;;;;;5.38;2.58;;;10.70;99.90;;;;;;5064909;28;20091;-84
2023/01/11 01:18:56;;;;;;;5.97;2.38;;;10.70;99.90;;;;;;5039796;28;20472;-83
2023/01/11 01:21:23;;;;;;;5.97;2.50;;;10.80;99.90;;;;;;5040022;28;20029;-83
2023/01/11 01:23:53;;;;;;;5.35;2.67;;;10.70;99.90;;;;;;5040054;28;20033;-84
2023/01/11 01:26:19;;;;;;;5.90;2.60;;;10.70;99.90;;;;;;5040042;28;20029;-84
2023/01/11 01:28:45;;;;;;;5.63;2.95;;;10.80;99.90;;;;;;5056137;28;20674;-83
2023/01/11 01:31:11;;;;;;;6.72;2.72;;;10.80;99.90;;;;;;5023283;28;20028;-84
2023/01/11 01:33:36;;;;;;;4.00;2.55;;;10.80;99.90;;;;;;5023080;28;20021;-84
2023/01/11 01:36:03;;;;;;;5.40;3.08;;;10.80;99.90;;;;;;5023314;28;20028;-84
2023/01/11 01:38:29;;;;;;;5.88;2.65;;;10.90;99.90;;;;;;5056033;28;20081;-84
2023/01/11 01:40:55;;;;;;;6.32;2.65;;;10.90;99.90;;;;;;5039503;28;20561;-83
2023/01/11 01:43:22;;;;;;;5.00;2.50;;;10.90;99.90;;;;;;5055872;28;20028;-84
2023/01/11 01:45:51;;;;;;;3.65;1.95;;;10.90;99.90;;;;;;5056252;28;20024;-84
2023/01/11 01:48:22;;;;;;;5.00;2.10;;;10.90;99.90;;;;;;5055861;28;20482;-84
2023/01/11 01:50:50;;;;;;;11.43;3.08;;;10.90;99.90;;;;;;5056040;28;20142;-84
2023/01/11 01:53:24;;;;;;;9.10;3.33;;;11.00;99.90;;;;;;5073606;28;20024;-84
2023/01/11 01:56:00;;;;;;;5.57;2.90;;;11.00;99.90;;;;;;5055885;28;20026;-83
2023/01/11 01:58:44;;;;;;;3.10;2.55;;;11.00;99.90;;;;;;5055871;28;20083;-83
2023/01/11 02:03:57;;;;;;;3.17;2.40;;;11.00;99.90;;;;;;5074487;28;20028;-84
2023/01/11 02:06:23;;;;;;;5.32;2.28;;;11.00;99.90;;;;;;5022966;28;20024;-83
2023/01/11 02:08:57;;;;;;;4.43;2.03;;;11.00;99.90;;;;;;5039595;28;20082;-83
2023/01/11 02:11:30;;;;;;;3.40;2.03;;;11.00;99.90;;;;;;5055871;28;20468;-83
2023/01/11 02:14:02;;;;;;;3.67;2.08;;;11.00;99.90;;;;;;5055985;28;20066;-83
2023/01/11 02:16:27;;;;;;;2.92;2.08;;;11.00;99.90;;;;;;5055639;28;20054;-83
2023/01/11 02:18:55;;;;;;;4.20;2.08;;;11.10;99.90;;;;;;5022810;28;20476;-83
2023/01/11 02:21:56;;;;;;;2.95;1.77;;;11.10;99.90;;;;;;5055833;28;20044;-83
2023/01/11 02:24:43;;;;;;;3.25;1.88;;;11.10;99.90;;;;;;5073420;28;20056;-83
2023/01/11 02:27:42;;;;;;;4.43;1.70;;;11.10;99.90;;;;;;5073199;28;20019;-83
2023/01/11 02:30:23;;;;;;;2.97;1.73;;;11.10;99.90;;;;;;5055291;28;20485;-84
2023/01/11 02:33:19;;;;;;;3.35;2.10;;;11.10;99.90;;;;;;5055021;28;20032;-84
2023/01/11 02:35:59;;;;;;;2.72;1.55;;;11.10;99.90;;;;;;5055047;28;20021;-83
2023/01/11 02:39:06;;;;;;;2.65;1.50;;;11.10;99.90;;;;;;5072966;28;20027;-83
2023/01/11 02:47:29;;;;;;;3.67;1.90;;;11.20;99.90;;;;;;5082340;28;20086;-82
2023/01/11 02:50:08;;;;;;;3.58;2.08;;;11.10;99.90;;;;;;5071044;28;20116;-83
2023/01/11 02:52:44;;;;;;;3.42;2.38;;;11.20;99.90;;;;;;5055648;28;20020;-83
2023/01/11 02:55:12;;;;;;;5.93;1.98;;;11.20;99.90;;;;;;5075880;28;20108;-83
2023/01/11 02:57:41;;;;;;;3.90;2.00;;;11.20;99.90;;;;;;5062972;28;20025;-83
2023/01/11 03:00:08;;;;;;;4.18;2.30;;;11.20;99.90;;;;;;5078798;28;20044;-83
2023/01/11 03:02:34;;;;;;;4.43;2.53;;;11.20;99.90;;;;;;5072216;28;20035;-83
2023/01/11 03:04:59;;;;;;;3.13;1.90;;;11.20;99.90;;;;;;5042748;28;20427;-82
2023/01/11 03:07:33;;;;;;;3.35;2.47;;;11.30;99.90;;;;;;5054762;28;20028;-84
2023/01/11 03:10:36;;;;;;;2.90;2.10;;;11.30;99.90;;;;;;5080845;28;20047;-83
2023/01/11 03:13:10;;;;;;;2.88;2.40;;;11.30;99.90;;;;;;5059590;28;20051;-82
2023/01/11 03:16:10;;;;;;;4.45;2.85;;;11.30;99.90;;;;;;5058813;28;20083;-82
2023/01/11 03:18:47;;;;;;;3.15;2.42;;;11.30;99.90;;;;;;5076513;28;20031;-82
2023/01/11 03:21:21;;;;;;;2.63;2.03;;;11.40;99.90;;;;;;5076208;28;20061;-82
2023/01/11 03:24:12;;;;;;;4.63;2.67;;;11.40;99.90;;;;;;5058691;28;20127;-82
2023/01/11 03:26:44;;;;;;;;;;;11.40;99.90;;;;;;5076433;28;20020;-83
2023/01/11 03:29:19;;;;;;;4.93;2.67;;;11.40;99.90;;;;;;5075985;28;20347;-81
2023/01/11 03:31:59;;;;;;;3.88;2.55;;;11.40;99.90;;;;;;5076417;28;20104;-81
2023/01/11 03:35:01;;;;;;;5.60;2.53;;;11.40;99.90;;;;;;5058191;28;20017;-81
2023/01/11 03:37:34;;;;;;;5.90;2.90;;;11.50;99.90;;;;;;5058161;28;20021;-82
2023/01/11 03:40:08;;;;;;;4.82;2.92;;;11.50;99.90;;;;;;5058197;28;20072;-81
2023/01/11 03:43:09;;;;;;;4.40;2.58;;;11.50;99.90;;;;;;5058344;28;20376;-81
2023/01/11 03:45:22;;;;;;;6.20;2.70;;;11.50;99.90;;;;;;5075514;28;20139;-83
2023/01/11 03:47:48;;;;;;;3.67;2.65;;;11.50;99.90;;;;;;5075666;28;20035;-81
2023/01/11 03:50:15;;;;;;;4.75;2.90;;;11.50;99.90;;;;;;5041425;28;20028;-81
2023/01/11 03:52:43;;;;;;;3.28;2.40;;;11.60;99.90;;;;;;5024945;28;20071;-81
2023/01/11 03:55:11;;;;;;;4.35;2.72;;;11.60;99.90;;;;;;5041223;28;20187;-81
2023/01/11 03:57:41;;;;;;;4.25;2.90;;;11.60;99.90;;;;;;5075747;28;20025;-81
2023/01/11 04:00:09;;;;;;;3.70;2.63;;;11.60;99.90;;;;;;5057635;28;20376;-81
2023/01/11 04:02:39;;;;;;;3.40;2.40;;;11.60;99.90;;;;;;5057624;28;20373;-81
2023/01/11 04:05:06;;;;;;;5.22;3.05;;;11.60;99.90;;;;;;5057750;28;20059;-81
2023/01/11 04:07:32;;;;;;;3.40;2.42;;;11.60;99.90;;;;;;5075351;28;20059;-81
2023/01/11 04:09:57;;;;;;;4.68;2.13;;;11.60;99.90;;;;;;5024160;28;20024;-81
2023/01/11 04:12:24;;;;;;;3.53;2.70;;;11.70;99.90;;;;;;5057483;28;20024;-81
2023/01/11 04:14:50;;;;;;;3.65;2.38;;;11.70;99.90;;;;;;5040954;28;20025;-81
2023/01/11 04:17:16;;;;;;;3.17;2.53;;;11.70;99.90;;;;;;5057286;28;20518;-81
2023/01/11 04:19:41;;;;;;;4.65;3.08;;;11.80;99.90;;;;;;5056226;28;20103;-81
2023/01/11 04:22:07;;;;;;;3.65;2.58;;;11.80;99.90;;;;;;5040590;28;20032;-81
2023/01/11 04:24:32;;;;;;;3.50;2.83;;;11.80;99.90;;;;;;5057025;28;20047;-81
2023/01/11 04:26:58;;;;;;;3.72;2.45;;;11.80;99.90;;;;;;5057521;28;20103;-81
2023/01/11 04:29:24;;;;;;;4.60;2.90;;;11.80;99.90;;;;;;5040651;28;20391;-81
2023/01/11 04:31:49;;;;;;;3.97;2.67;;;11.80;99.90;;;;;;5057114;28;20028;-81
2023/01/11 04:34:15;;;;;;;5.30;3.00;;;11.80;99.90;;;;;;5040461;28;20119;-81
2023/01/11 04:36:41;;;;;;;4.28;2.60;;;11.80;99.90;;;;;;5075168;28;20028;-81
2023/01/11 04:39:09;;;;;;;4.05;2.75;;;11.90;99.90;;;;;;5040483;28;20074;-81
2023/01/11 04:44:20;;;;;;;4.38;3.28;;;11.90;99.90;;;;;;5060143;28;20508;-81
2023/01/11 04:46:46;;;;;;;5.18;3.53;;;11.90;99.90;;;;;;5074570;28;20029;-81
2023/01/11 04:49:11;;;;;;;5.47;3.33;;;11.90;99.90;;;;;;5040192;28;20488;-81
2023/01/11 04:51:37;;;;;;;4.75;3.38;;;11.90;99.90;;;;;;5040074;28;20028;-81
2023/01/11 04:54:03;;;;;;;4.15;2.97;;;12.00;99.90;;;;;;5074460;28;20384;-81
2023/01/11 04:56:29;;;;;;;5.10;3.47;;;12.00;99.90;;;;;;5056691;28;20375;-80
2023/01/11 04:58:54;;;;;;;4.15;2.97;;;12.00;99.90;;;;;;5056375;28;20021;-81
2023/01/11 05:01:20;;;;;;;6.00;3.40;;;12.00;99.90;;;;;;5023305;28;20115;-81
2023/01/11 05:03:46;;;;;;;4.97;3.63;;;12.00;99.90;;;;;;5023273;28;20027;-81
2023/01/11 05:06:13;;;;;;;5.13;3.80;;;12.00;99.90;;;;;;5039517;28;20024;-80
2023/01/11 05:08:39;;;;;;;7.65;4.60;;;12.10;99.90;;;;;;5056291;28;20032;-81
2023/01/11 05:11:06;;;;;;;6.38;5.13;;;12.10;99.90;;;;;;5039690;28;20032;-81
2023/01/11 05:13:41;;;;;;;6.15;4.70;;;12.10;99.90;;;;;;5056007;28;20032;-83
2023/01/11 05:16:07;;;;;;;6.63;4.80;;;12.10;99.90;;;;;;5052708;28;20052;-81
2023/01/11 05:18:33;;;;;;;8.13;5.88;;;12.10;99.90;;;;;;5052639;28;20028;-82
2023/01/11 05:20:59;;;;;;;8.35;6.05;;;12.10;99.90;;;;;;5054099;28;20075;-81
2023/01/11 05:23:24;;;;;;;8.13;5.13;;;12.10;99.90;;;;;;5052922;28;20033;-81
2023/01/11 05:25:50;;;;;;;8.00;5.60;;;12.10;99.90;;;;;;5054142;28;20103;-84
2023/01/11 05:28:16;;;;;;;9.45;5.80;;;12.20;99.90;;;;;;5052516;28;20025;-81
2023/01/11 05:30:41;;;;;;;10.32;6.45;;;12.10;99.90;;;;;;5036278;28;20041;-81
2023/01/11 05:33:07;;;;;;;10.15;6.13;;;12.10;99.90;;;;;;5036081;28;20033;-81
2023/01/11 05:35:32;;;;;;;9.68;6.63;;;12.10;99.90;;;;;;5019695;28;20036;-81
2023/01/11 05:37:58;;;;;;;11.70;5.93;;;12.10;99.90;;;;;;5052565;28;20033;-81
2023/01/11 05:40:24;;;;;;;11.15;6.10;;;12.10;99.90;;;;;;5019379;28;20367;-81
2023/01/11 05:42:49;;;;;;;10.65;5.95;;;12.10;99.90;;;;;;5052595;28;20029;-81
2023/01/11 05:45:34;;;;;;;10.05;6.07;;;12.20;99.90;;;;;;5035966;28;20033;-81
2023/01/11 05:48:00;;;;;;;9.35;5.82;;;12.20;99.90;;;;;;5051979;28;20090;-81
2023/01/11 05:50:26;;;;;;;12.20;6.50;;;12.10;99.90;;;;;;5035863;28;20025;-81
2023/01/11 05:52:52;;;;;;;18.25;6.65;;;12.20;99.90;;;;;;5035703;28;20431;-81
2023/01/11 05:55:17;;;;;;;14.60;6.85;;;12.10;99.90;;;;;;5035909;28;20029;-81
2023/01/11 05:57:45;;;;;;;11.90;5.57;;;12.10;99.90;;;;;;5035684;28;20128;-81
2023/01/11 06:00:11;;;;;;;12.98;6.05;;;12.10;99.90;;;;;;5053568;28;20029;-81
2023/01/11 06:02:37;;;;;;;11.43;5.88;;;12.20;99.90;;;;;;5052086;28;20461;-85
2023/01/11 06:05:04;;;;;;;14.73;6.78;;;12.10;99.90;;;;;;5052356;28;20114;-81
2023/01/11 06:07:30;;;;;;;16.63;6.68;;;12.20;99.90;;;;;;5052230;28;20033;-81
2023/01/11 06:09:56;;;;;;;16.38;5.45;;;12.10;99.90;;;;;;5035533;28;20031;-80
2023/01/11 06:12:21;;;;;;;12.90;4.78;;;12.10;99.90;;;;;;5052291;28;20043;-81
2023/01/11 06:14:47;;;;;;;15.75;5.03;;;12.10;99.90;;;;;;5019119;28;20476;-81
2023/01/11 06:17:12;;;;;;;17.10;4.47;;;12.10;99.90;;;;;;5051769;28;20420;-81
2023/01/11 06:19:38;;;;;;;16.60;5.07;;;12.10;99.90;;;;;;5052087;28;20131;-81
2023/01/11 06:22:04;;;;;;;14.82;5.13;;;12.10;99.90;;;;;;5035491;28;20040;-81
2023/01/11 06:24:30;;;;;;;13.85;3.95;;;12.00;99.90;;;;;;5052188;28;20025;-81
2023/01/11 06:26:55;;;;;;;19.42;4.30;;;12.00;99.90;;;;;;5051923;28;20553;-81
2023/01/11 06:29:21;;;;;;;23.27;4.55;;;12.00;99.90;;;;;;5019111;28;20044;-82
2023/01/11 06:31:47;;;;;;;20.02;3.38;;;12.00;99.90;;;;;;5035405;28;20063;-81
2023/01/11 06:34:12;;;;;;;20.95;4.30;;;11.90;99.90;;;;;;5051976;28;20033;-81
2023/01/11 06:36:38;;;;;;;22.73;3.53;;;11.90;99.90;;;;;;5035618;28;20028;-81
2023/01/11 06:39:07;;;;;;;18.90;4.43;;;11.90;99.90;;;;;;5035413;28;20036;-81
2023/01/11 06:41:32;;;;;;;18.42;3.53;;;11.90;99.90;;;;;;5035456;28;20500;-82
2023/01/11 06:43:58;;;;;;;15.07;3.30;;;11.80;99.90;;;;;;5053840;28;20247;-82
2023/01/11 06:46:24;;;;;;;18.27;3.35;;;11.80;99.90;;;;;;5038016;28;20119;-84
2023/01/11 06:48:49;;;;;;;18.65;3.30;;;11.80;99.90;;;;;;5037895;28;20036;-82
2023/01/11 06:51:15;;;;;;;16.38;2.65;;;11.80;99.90;;;;;;5038233;28;20029;-82
2023/01/11 06:53:42;;;;;;;15.20;3.38;;;11.80;99.90;;;;;;5055271;28;20021;-81
2023/01/11 06:56:14;;;;;;;21.77;3.33;;;11.80;99.90;;;;;;5055150;28;20033;-82
2023/01/11 06:58:40;;;;;;;12.45;2.80;;;11.70;99.90;;;;;;5057327;28;20072;-81
2023/01/11 07:01:06;;;;;;;19.15;2.75;;;11.70;99.90;;;;;;5056523;28;20440;-81
2023/01/11 07:03:32;;;;;;;24.27;3.65;;;11.70;99.90;;;;;;5055518;28;20419;-81
2023/01/11 07:05:57;;;;;;;16.17;2.80;;;11.70;99.90;;;;;;5056227;28;20036;-83
2023/01/11 07:08:24;;;;;;;20.73;3.08;;;11.60;99.90;;;;;;5055280;28;20021;-81
2023/01/11 07:10:50;;;;;;;23.73;4.68;;;11.60;99.90;;;;;;5055069;28;20032;-81
2023/01/11 07:13:17;;;;;;;21.83;3.33;;;11.60;99.90;;;;;;5055473;28;20025;-82
2023/01/11 07:15:49;;;;;;;19.25;3.15;;;11.60;99.90;;;;;;5055056;28;20461;-82
2023/01/11 07:18:16;;;;;;;20.80;3.22;;;11.60;99.90;;;;;;5055221;28;20017;-82
2023/01/11 07:20:42;;;;;;;18.80;3.25;;;11.50;99.90;;;;;;5038624;28;20079;-82
2023/01/11 07:23:08;;;;;;;25.40;3.33;;;11.50;99.90;;;;;;5038621;28;20119;-81
2023/01/11 07:25:34;;;;;;;19.20;3.10;;;11.50;99.90;;;;;;5055944;28;20021;-83
2023/01/11 07:28:05;;;;;;;19.60;3.15;;;11.50;99.90;;;;;;5055998;28;20025;-82
2023/01/11 07:30:34;;;;;;;18.63;3.25;;;11.50;99.90;;;;;;5056166;28;20059;-82
2023/01/11 07:33:00;;;;;;;18.15;3.65;;;11.40;99.90;;;;;;5054973;28;20179;-82
2023/01/11 07:35:27;;;;;;;22.17;3.58;;;11.50;99.90;;;;;;5038269;28;20468;-82
2023/01/11 07:37:52;;;;;;;20.20;3.22;;;11.50;99.90;;;;;;5054859;28;20099;-81
2023/01/11 07:40:19;;;;;;;20.02;3.50;;;11.40;99.90;;;;;;5038155;28;20025;-82
2023/01/11 07:45:35;;;;;;;13.57;2.65;;;11.40;99.90;;;;;;5055934;28;20032;-80
2023/01/11 07:48:05;;;;;;;15.85;2.95;;;11.30;99.90;;;;;;5040734;28;20033;-81
2023/01/11 07:50:32;;;;;;;23.60;3.05;;;11.30;99.90;;;;;;5054549;28;20020;-80
2023/01/11 07:52:57;;;;;;;19.35;3.65;;;11.30;99.90;;;;;;5037943;28;20116;-82
2023/01/11 07:55:23;;;;;;;21.48;3.15;;;11.20;99.90;;;;;;5054733;28;20055;-82
2023/01/11 07:57:49;;;;;;;28.67;4.35;;;11.20;99.90;;;;;;5055094;28;20124;-81
2023/01/11 08:00:15;;;;;;;20.92;3.00;;;11.20;99.90;;;;;;5054410;28;20048;-82
2023/01/11 08:02:42;;;;;;;20.00;2.78;;;11.10;99.90;;;;;;5022324;28;20029;-83
2023/01/11 08:05:08;;;;;;;16.17;3.30;;;11.10;99.90;;;;;;5037946;28;20454;-81
2023/01/11 08:07:34;;;;;;;14.05;2.83;;;11.00;99.90;;;;;;5052455;28;20025;-82
2023/01/11 08:09:59;;;;;;;14.23;2.95;;;11.00;99.90;;;;;;5020721;28;20021;-83
2023/01/11 08:15:12;;;;;;;20.98;3.17;;;11.00;99.90;;;;;;5040167;28;20075;-83
2023/01/11 08:17:43;;;;;;;12.32;2.78;;;11.00;99.90;;;;;;5038166;28;20045;-83
2023/01/11 08:20:09;;;;;;;16.48;3.05;;;11.00;99.90;;;;;;5037868;28;20017;-82
2023/01/11 08:22:35;;;;;;;20.55;3.90;;;10.90;99.90;;;;;;5022244;28;20047;-82
2023/01/11 08:25:00;;;;;;;16.65;2.60;;;10.90;99.90;;;;;;5021995;28;20116;-82
2023/01/11 08:27:26;;;;;;;20.58;3.20;;;10.90;99.90;;;;;;5037644;28;20029;-82
2023/01/11 08:29:52;;;;;;;16.50;2.72;;;10.90;99.90;;;;;;5053944;28;20028;-82
2023/01/11 08:32:20;;;;;;;13.93;2.50;;;10.90;99.90;;;;;;5037310;28;20033;-83
2023/01/11 08:34:46;;;;;;;17.20;2.80;;;10.90;99.90;;;;;;5021218;28;20022;-82
2023/01/11 08:37:13;;;;;;;20.17;3.92;;;10.90;99.90;;;;;;5053198;28;20036;-82
2023/01/11 08:39:39;;;;;;;19.60;3.05;;;10.80;99.90;;;;;;5053585;28;20036;-82
2023/01/11 08:42:04;;;;;;;20.70;3.65;;;10.80;99.90;;;;;;5053408;28;20033;-82
2023/01/11 08:44:30;;;;;;;22.70;4.03;;;10.80;99.90;;;;;;5053801;28;20064;-81
2023/01/11 08:46:58;;;;;;;21.40;2.90;;;10.80;99.90;;;;;;5053549;28;20021;-85
2023/01/11 08:49:24;;;;;;;18.88;2.90;;;10.80;99.90;;;;;;5053188;28;20023;-82
2023/01/11 08:51:51;;;;;;;20.67;3.05;;;10.70;99.90;;;;;;5052652;28;20115;-82
2023/01/11 08:54:16;;;;;;;19.92;3.88;;;10.70;99.90;;;;;;5052519;28;20035;-83
2023/01/11 08:56:42;;;;;;;18.33;2.47;;;10.70;99.90;;;;;;5054130;28;20033;-84
2023/01/11 08:59:12;;;;;;;24.88;3.22;;;10.70;99.90;;;;;;5035607;28;20029;-85
2023/01/11 09:01:37;;;;;;;23.45;3.60;;;10.70;99.90;;;;;;5036402;28;20436;-83
2023/01/11 09:04:03;;;;;;;17.83;3.22;;;10.70;99.90;;;;;;5035990;28;20055;-84
2023/01/11 09:06:29;;;;;;;17.98;3.00;;;10.70;99.90;;;;;;5052440;28;20021;-82
2023/01/11 09:08:56;;;;;;;17.65;3.03;;;10.70;99.90;;;;;;5036525;28;20025;-82
2023/01/11 09:14:08;;;;;;;20.58;2.97;;;10.60;99.90;;;;;;5054118;28;20059;-82
2023/01/11 09:16:34;;;;;;;20.63;4.30;;;10.60;99.90;;;;;;5052364;28;20037;-82
2023/01/11 09:19:00;;;;;;;25.58;3.47;;;10.60;99.90;;;;;;5053412;28;20041;-83
2023/01/11 09:21:26;;;;;;;14.57;2.80;;;10.60;99.90;;;;;;5036659;28;20033;-83
2023/01/11 09:23:54;;;;;;;17.88;2.80;;;10.60;99.90;;;;;;5053294;28;20112;-83
2023/01/11 09:26:19;;;;;;;17.15;2.78;;;10.60;99.90;;;;;;5053390;28;20029;-82
2023/01/11 09:28:45;;;;;;;16.23;3.22;;;10.60;99.90;;;;;;5052903;28;20027;-83
2023/01/11 09:31:13;;;;;;;22.73;3.25;;;10.60;99.90;;;;;;5052885;28;20033;-82
2023/01/11 09:33:38;;;;;;;21.60;2.83;;;10.60;99.90;;;;;;5036149;28;20119;-82
2023/01/11 09:36:10;;;;;;;20.50;3.20;;;10.60;99.90;;;;;;5054301;28;20406;-83
2023/01/11 09:38:38;;;;;;;15.27;3.20;;;10.50;99.90;;;;;;5036835;28;20117;-82
2023/01/11 09:41:29;;;;;;;14.52;3.50;;;10.50;99.90;;;;;;5051958;28;20033;-83
2023/01/11 09:44:10;;;;;;;21.08;3.63;;;10.50;99.90;;;;;;5053661;28;20017;-83
2023/01/11 09:46:41;;;;;;;23.58;3.72;;;10.40;99.90;;;;;;5051564;28;20024;-83
2023/01/11 09:49:13;;;;;;;;;;;10.40;99.90;;;;;;5036377;28;20033;-82
2023/01/11 09:51:38;;;;;;;;;;;10.40;99.90;;;;;;5052308;28;19904;-83
2023/01/11 09:54:09;;;;;;;17.52;4.15;;;10.30;99.90;;;;;;5052299;28;19905;-83
2023/01/11 09:56:46;;;;;;;21.55;2.97;;;10.30;99.90;;;;;;5052187;28;20017;-82
2023/01/11 09:59:32;;;;;;;21.92;3.22;;;10.20;99.90;;;;;;5053463;28;20458;-83
2023/01/11 10:02:18;;;;;;;21.48;3.42;;;10.20;99.90;;;;;;5051939;28;20091;-84
2023/01/11 10:05:04;;;;;;;19.17;2.90;;;10.20;99.90;;;;;;5050987;28;20112;-82
2023/01/11 10:07:52;;;;;;;24.60;3.10;;;10.20;99.90;;;;;;5053687;28;20029;-82
2023/01/11 10:10:30;;;;;;;14.77;3.05;;;10.20;99.90;;;;;;5052197;28;20021;-82
2023/01/11 10:13:21;;;;;;;24.30;3.20;;;10.20;99.90;;;;;;5052070;28;20025;-83
2023/01/11 10:16:19;;;;;;;20.92;3.13;;;10.20;99.90;;;;;;5055202;28;20045;-83
2023/01/11 10:19:13;;;;;;;21.35;3.13;;;10.30;99.90;;;;;;5041788;28;20538;-83
2023/01/11 10:21:46;;;;;;;18.60;3.03;;;10.30;99.90;;;;;;5059759;28;20030;-82
2023/01/11 10:24:23;;;;;;;22.13;3.25;;;10.40;99.90;;;;;;5059127;28;20029;-82
2023/01/11 10:26:51;;;;;;;18.20;3.10;;;10.40;99.90;;;;;;5059633;28;20368;-82
2023/01/11 10:38:22;;;;;;;18.80;3.58;;;10.50;99.90;;;;;;5077479;28;20123;-83
2023/01/11 10:41:13;;;;;;;45.72;6.13;;;10.60;99.90;;;;;;5059188;28;20354;-82
2023/01/11 10:43:47;;;;;;;16.73;3.15;;;10.60;99.90;;;;;;5077170;28;20070;-81
2023/01/11 10:46:17;;;;;;;20.13;3.10;;;10.60;99.90;;;;;;5059122;28;20498;-82
2023/01/11 10:48:44;;;;;;;17.70;2.90;;;10.70;99.90;;;;;;5059286;28;20091;-83
2023/01/11 10:51:30;;;;;;;25.58;4.00;;;10.70;99.90;;;;;;5058883;28;20035;-83
2023/01/11 10:54:16;;;;;;;19.20;3.70;;;10.70;99.90;;;;;;5059313;28;20403;-82
2023/01/11 10:57:12;;;;;;;22.27;3.60;;;10.80;99.90;;;;;;5059263;28;20095;-82
2023/01/11 10:59:45;;;;;;;27.35;4.65;;;10.90;99.90;;;;;;5059115;28;20025;-82
2023/01/11 11:02:22;;;;;;;24.23;3.47;;;10.90;99.90;;;;;;5059303;28;20033;-83
2023/01/11 11:05:26;;;;;;;17.08;3.03;;;10.90;99.90;;;;;;5058978;28;20043;-83
2023/01/11 11:08:03;;;;;;;20.40;3.33;;;11.00;99.90;;;;;;5044481;28;20033;-83
2023/01/11 11:10:49;;;;;;;21.92;2.92;;;11.00;99.90;;;;;;5058834;28;20123;-84
2023/01/11 11:13:14;;;;;;;20.08;3.35;;;11.10;99.90;;;;;;5057983;28;20039;-84
2023/01/11 11:16:14;;;;;;;15.85;3.17;;;11.10;99.90;;;;;;5075864;28;20024;-82
2023/01/11 11:18:41;;;;;;;23.40;3.58;;;11.20;99.90;;;;;;5037894;28;20056;-83
2023/01/11 11:21:30;;;;;;;17.15;2.63;;;11.20;99.90;;;;;;5042013;28;20043;-83
2023/01/11 11:24:16;;;;;;;17.05;2.97;;;11.20;99.90;;;;;;5076204;28;20465;-83
2023/01/11 11:26:46;;;;;;;23.10;2.88;;;11.30;99.90;;;;;;5058535;28;20021;-83
2023/01/11 11:29:28;;;;;;;13.68;2.70;;;11.40;99.90;;;;;;5058077;28;20472;-85
2023/01/11 11:31:56;;;;;;;22.58;3.25;;;11.40;99.90;;;;;;5081150;28;20028;-87
2023/01/11 11:34:26;;;;;;;21.15;2.90;;;11.50;99.90;;;;;;5060214;28;20465;-83
2023/01/11 11:36:53;;;;;;;22.65;3.13;;;11.60;99.90;;;;;;5058065;28;20407;-83
2023/01/11 11:39:24;;;;;;;19.65;3.70;;;11.70;99.90;;;;;;5041583;28;20080;-85
2023/01/11 11:41:52;;;;;;;17.02;2.75;;;11.70;99.90;;;;;;5057845;28;20546;-82
2023/01/11 11:44:24;;;;;;;16.23;3.05;;;11.70;99.90;;;;;;5058005;28;20027;-84
2023/01/11 11:47:05;;;;;;;23.77;4.80;;;11.70;99.90;;;;;;5058116;28;20044;-83
2023/01/11 11:49:35;;;;;;;23.98;3.35;;;11.80;99.90;;;;;;5075645;28;20025;-83
2023/01/11 11:52:04;;;;;;;15.13;2.75;;;11.80;99.90;;;;;;5057613;28;20025;-81
2023/01/11 11:54:47;;;;;;;21.30;3.90;;;11.70;99.90;;;;;;5056900;28;20021;-82
2023/01/11 11:57:24;;;;;;;18.50;3.30;;;11.70;99.90;;;;;;5057791;28;20033;-81
2023/01/11 12:00:19;;;;;;;20.13;4.00;;;11.70;99.90;;;;;;5057815;28;20075;-83
2023/01/11 12:02:49;;;;;;;17.50;3.42;;;11.70;99.90;;;;;;5057645;28;20036;-83
2023/01/11 12:05:15;;;;;;;15.70;3.83;;;11.70;99.90;;;;;;5074181;28;20473;-82
2023/01/11 12:07:47;;;;;;;21.02;3.60;;;11.70;99.90;;;;;;5075588;28;20016;-82
2023/01/11 12:10:17;;;;;;;23.40;3.35;;;11.70;99.90;;;;;;5075178;28;20024;-84
2023/01/11 12:12:51;;;;;;;17.58;3.08;;;11.80;99.90;;;;;;5056012;28;20043;-84
2023/01/11 12:15:29;;;;;;;17.55;3.47;;;11.80;99.90;;;;;;5056024;28;20368;-84
2023/01/11 12:18:21;;;;;;;17.33;3.10;;;11.80;99.90;;;;;;5055804;28;20114;-86
2023/01/11 12:20:48;;;;;;;20.65;3.03;;;11.80;99.90;;;;;;5056130;28;20058;-84
2023/01/11 12:23:23;;;;;;;21.58;3.58;;;11.90;99.90;;;;;;5039745;28;20028;-84
2023/01/11 12:26:16;;;;;;;23.10;3.33;;;11.90;99.90;;;;;;5055822;28;20112;-84
2023/01/11 12:28:42;;;;;;;19.83;3.38;;;11.90;99.90;;;;;;5057220;28;20088;-82
2023/01/11 12:31:20;;;;;;;15.20;2.70;;;11.90;99.90;;;;;;5075374;28;20472;-83
2023/01/11 12:33:57;;;;;;;16.13;3.80;;;11.90;99.90;;;;;;5074906;28;20066;-84
2023/01/11 12:36:49;;;;;;;18.27;3.00;;;11.90;99.90;;;;;;5074520;28;20024;-83
2023/01/11 12:39:32;;;;;;;21.88;3.05;;;11.80;99.90;;;;;;5057129;28;20032;-83
2023/01/11 12:42:01;;;;;;;17.08;3.63;;;11.80;99.90;;;;;;5055894;28;20388;-83
2023/01/11 12:44:55;;;;;;;14.40;3.13;;;11.80;99.90;;;;;;5056667;28;20123;-84
2023/01/11 12:47:59;;;;;;;18.75;3.00;;;11.80;99.90;;;;;;5039370;28;20032;-83
2023/01/11 12:50:50;;;;;;;14.48;2.67;;;11.80;99.90;;;;;;5057048;28;20020;-84
2023/01/11 12:53:49;;;;;;;14.35;2.75;;;11.80;99.90;;;;;;5075478;28;20457;-83
2023/01/11 12:56:46;;;;;;;21.15;3.60;;;11.80;99.90;;;;;;5057182;28;20051;-83
2023/01/11 12:59:20;;;;;;;13.40;2.60;;;11.80;99.90;;;;;;5074750;28;20461;-83
2023/01/11 13:02:26;;;;;;;10.88;2.60;;;11.80;99.90;;;;;;5056531;28;20583;-82
2023/01/11 13:05:15;;;;;;;14.95;3.15;;;11.80;99.90;;;;;;5055818;28;20036;-84
2023/01/11 13:07:59;;;;;;;14.07;3.25;;;11.70;99.90;;;;;;5073301;28;20455;-83
2023/01/11 13:10:44;;;;;;;16.45;3.17;;;11.70;99.90;;;;;;5073350;28;20358;-86
2023/01/11 13:13:38;;;;;;;16.40;2.88;;;11.70;99.90;;;;;;5055756;28;20049;-85
2023/01/11 13:16:30;;;;;;;16.17;2.42;;;11.70;99.90;;;;;;5055010;28;20076;-84
2023/01/11 13:19:06;;;;;;;18.00;4.47;;;11.70;99.90;;;;;;5073238;28;20036;-82
2023/01/11 13:21:43;;;;;;;24.05;3.22;;;11.70;99.90;;;;;;5056030;28;20090;-84
2023/01/11 13:24:44;;;;;;;17.08;2.83;;;11.70;99.90;;;;;;5056544;28;20562;-82
2023/01/11 13:27:14;;;;;;;16.90;4.05;;;11.70;99.90;;;;;;5052337;28;20032;-83
2023/01/11 13:29:43;;;;;;;19.25;3.72;;;11.70;99.90;;;;;;5074075;28;20021;-83
2023/01/11 13:32:17;;;;;;;16.88;3.50;;;11.70;99.90;;;;;;5056112;28;20116;-83
2023/01/11 13:34:59;;;;;;;18.50;3.95;;;11.80;99.90;;;;;;5056348;28;20068;-83
2023/01/11 13:37:43;;;;;;;23.63;5.70;;;11.80;99.90;;;;;;5056309;28;20035;-83
2023/01/11 13:40:16;;;;;;;20.17;4.45;;;11.80;99.90;;;;;;5056545;28;20020;-83
2023/01/11 13:42:56;;;;;;;19.05;4.13;;;11.80;99.90;;;;;;5055911;28;20511;-84
2023/01/11 13:45:22;;;;;;;28.13;5.40;;;11.90;99.90;;;;;;5055906;28;20028;-84